sensor_id;sensor_type;location;lat;lon;timestamp;P1;durP1;ratioP1;P2;durP2;ratioP2
50249;SDS011;36133;42.522;27.456;2023-05-19T00:01:56;14.07;;;8.15;;
50249;SDS011;36133;42.522;27.456;2023-05-19T00:04:24;13.35;;;7.43;;
50249;SDS011;36133;42.522;27.456;2023-05-19T00:06:50;18.67;;;9.35;;
50249;SDS011;36133;42.522;27.456;2023-05-19T00:09:18;17.80;;;8.65;;
50249;SDS011;36133;42.522;27.456;2023-05-19T00:11:44;15.55;;;8.25;;
50249;SDS011;36133;42.522;27.456;2023-05-19T00:14:10;19.08;;;9.45;;
50249;SDS011;36133;42.522;27.456;2023-05-19T00:16:36;17.17;;;9.23;;
50249;SDS011;36133;42.522;27.456;2023-05-19T00:19:03;16.48;;;9.25;;
50249;SDS011;36133;42.522;27.456;2023-05-19T00:21:30;16.17;;;8.20;;
50249;SDS011;36133;42.522;27.456;2023-05-19T00:23:56;13.90;;;9.25;;
50249;SDS011;36133;42.522;27.456;2023-05-19T00:26:22;18.38;;;8.85;;
50249;SDS011;36133;42.522;27.456;2023-05-19T00:28:48;16.50;;;9.07;;
50249;SDS011;36133;42.522;27.456;2023-05-19T00:31:14;17.70;;;9.20;;
50249;SDS011;36133;42.522;27.456;2023-05-19T00:33:43;17.88;;;9.90;;
50249;SDS011;36133;42.522;27.456;2023-05-19T00:36:08;16.27;;;9.75;;
50249;SDS011;36133;42.522;27.456;2023-05-19T00:38:34;16.45;;;9.52;;
50249;SDS011;36133;42.522;27.456;2023-05-19T00:41:01;16.27;;;9.50;;
50249;SDS011;36133;42.522;27.456;2023-05-19T00:43:28;14.25;;;10.25;;
50249;SDS011;36133;42.522;27.456;2023-05-19T00:45:54;16.75;;;9.80;;
50249;SDS011;36133;42.522;27.456;2023-05-19T00:48:20;17.45;;;11.18;;
50249;SDS011;36133;42.522;27.456;2023-05-19T00:50:49;17.45;;;10.43;;
50249;SDS011;36133;42.522;27.456;2023-05-19T00:53:17;22.23;;;10.50;;
50249;SDS011;36133;42.522;27.456;2023-05-19T00:55:43;14.65;;;10.45;;
50249;SDS011;36133;42.522;27.456;2023-05-19T00:58:10;20.10;;;10.65;;
50249;SDS011;36133;42.522;27.456;2023-05-19T01:00:36;24.85;;;11.02;;
50249;SDS011;36133;42.522;27.456;2023-05-19T01:03:06;22.17;;;10.30;;
50249;SDS011;36133;42.522;27.456;2023-05-19T01:05:38;21.42;;;11.40;;
50249;SDS011;36133;42.522;27.456;2023-05-19T01:08:08;22.92;;;10.38;;
50249;SDS011;36133;42.522;27.456;2023-05-19T01:10:34;19.85;;;10.07;;
50249;SDS011;36133;42.522;27.456;2023-05-19T01:13:00;22.77;;;11.48;;
50249;SDS011;36133;42.522;27.456;2023-05-19T01:15:28;17.50;;;10.40;;
50249;SDS011;36133;42.522;27.456;2023-05-19T01:18:03;21.52;;;10.07;;
50249;SDS011;36133;42.522;27.456;2023-05-19T01:20:43;19.15;;;11.27;;
50249;SDS011;36133;42.522;27.456;2023-05-19T01:28:52;18.38;;;10.32;;
50249;SDS011;36133;42.522;27.456;2023-05-19T01:31:40;18.10;;;10.57;;
50249;SDS011;36133;42.522;27.456;2023-05-19T01:34:06;18.05;;;10.85;;
50249;SDS011;36133;42.522;27.456;2023-05-19T01:36:34;18.80;;;10.75;;
50249;SDS011;36133;42.522;27.456;2023-05-19T01:39:04;20.65;;;10.70;;
50249;SDS011;36133;42.522;27.456;2023-05-19T01:41:30;17.30;;;11.02;;
50249;SDS011;36133;42.522;27.456;2023-05-19T01:43:58;18.25;;;11.05;;
50249;SDS011;36133;42.522;27.456;2023-05-19T01:46:24;18.63;;;11.38;;
50249;SDS011;36133;42.522;27.456;2023-05-19T01:48:49;21.08;;;12.02;;
50249;SDS011;36133;42.522;27.456;2023-05-19T01:51:16;18.75;;;11.73;;
50249;SDS011;36133;42.522;27.456;2023-05-19T01:53:41;18.65;;;11.30;;
50249;SDS011;36133;42.522;27.456;2023-05-19T01:56:07;24.92;;;13.63;;
50249;SDS011;36133;42.522;27.456;2023-05-19T01:58:46;19.40;;;12.07;;
50249;SDS011;36133;42.522;27.456;2023-05-19T02:01:17;32.45;;;12.38;;
50249;SDS011;36133;42.522;27.456;2023-05-19T02:09:12;21.42;;;12.38;;
50249;SDS011;36133;42.522;27.456;2023-05-19T02:12:11;20.17;;;11.63;;
50249;SDS011;36133;42.522;27.456;2023-05-19T02:17:34;20.55;;;13.48;;
50249;SDS011;36133;42.522;27.456;2023-05-19T02:20:06;19.98;;;11.77;;
50249;SDS011;36133;42.522;27.456;2023-05-19T02:22:33;22.73;;;12.25;;
50249;SDS011;36133;42.522;27.456;2023-05-19T02:24:59;17.75;;;11.10;;
50249;SDS011;36133;42.522;27.456;2023-05-19T02:27:24;20.48;;;11.68;;
50249;SDS011;36133;42.522;27.456;2023-05-19T02:29:51;19.40;;;11.55;;
50249;SDS011;36133;42.522;27.456;2023-05-19T02:32:17;24.77;;;11.88;;
50249;SDS011;36133;42.522;27.456;2023-05-19T02:34:42;25.98;;;11.68;;
50249;SDS011;36133;42.522;27.456;2023-05-19T02:37:12;19.05;;;11.25;;
50249;SDS011;36133;42.522;27.456;2023-05-19T02:39:39;18.98;;;12.02;;
50249;SDS011;36133;42.522;27.456;2023-05-19T02:42:05;19.75;;;11.35;;
50249;SDS011;36133;42.522;27.456;2023-05-19T02:44:30;24.23;;;11.15;;
50249;SDS011;36133;42.522;27.456;2023-05-19T02:46:56;23.92;;;10.85;;
50249;SDS011;36133;42.522;27.456;2023-05-19T02:49:21;19.92;;;11.27;;
50249;SDS011;36133;42.522;27.456;2023-05-19T02:51:47;18.33;;;11.23;;
50249;SDS011;36133;42.522;27.456;2023-05-19T02:54:15;15.70;;;10.38;;
50249;SDS011;36133;42.522;27.456;2023-05-19T02:56:43;18.33;;;11.25;;
50249;SDS011;36133;42.522;27.456;2023-05-19T02:59:09;19.98;;;11.93;;
50249;SDS011;36133;42.522;27.456;2023-05-19T03:01:36;24.48;;;12.43;;
50249;SDS011;36133;42.522;27.456;2023-05-19T03:04:01;22.33;;;12.30;;
50249;SDS011;36133;42.522;27.456;2023-05-19T03:06:27;22.27;;;13.48;;
50249;SDS011;36133;42.522;27.456;2023-05-19T03:08:53;23.63;;;13.13;;
50249;SDS011;36133;42.522;27.456;2023-05-19T03:11:18;25.08;;;14.40;;
50249;SDS011;36133;42.522;27.456;2023-05-19T03:13:44;24.98;;;15.05;;
50249;SDS011;36133;42.522;27.456;2023-05-19T03:16:10;23.85;;;12.95;;
50249;SDS011;36133;42.522;27.456;2023-05-19T03:18:35;32.00;;;15.77;;
50249;SDS011;36133;42.522;27.456;2023-05-19T03:21:02;26.40;;;15.27;;
50249;SDS011;36133;42.522;27.456;2023-05-19T03:23:27;30.90;;;16.13;;
50249;SDS011;36133;42.522;27.456;2023-05-19T03:25:53;29.13;;;15.52;;
50249;SDS011;36133;42.522;27.456;2023-05-19T03:28:19;24.52;;;13.20;;
50249;SDS011;36133;42.522;27.456;2023-05-19T03:30:47;25.35;;;12.77;;
50249;SDS011;36133;42.522;27.456;2023-05-19T03:33:14;19.90;;;13.02;;
50249;SDS011;36133;42.522;27.456;2023-05-19T03:35:40;27.70;;;12.38;;
50249;SDS011;36133;42.522;27.456;2023-05-19T03:38:06;21.75;;;10.98;;
50249;SDS011;36133;42.522;27.456;2023-05-19T03:40:31;24.05;;;11.38;;
50249;SDS011;36133;42.522;27.456;2023-05-19T03:42:57;17.73;;;10.45;;
50249;SDS011;36133;42.522;27.456;2023-05-19T03:45:22;19.02;;;10.35;;
50249;SDS011;36133;42.522;27.456;2023-05-19T03:47:48;18.40;;;9.75;;
50249;SDS011;36133;42.522;27.456;2023-05-19T03:50:13;23.60;;;10.93;;
50249;SDS011;36133;42.522;27.456;2023-05-19T03:52:39;20.85;;;11.48;;
50249;SDS011;36133;42.522;27.456;2023-05-19T03:55:10;20.92;;;10.75;;
50249;SDS011;36133;42.522;27.456;2023-05-19T03:57:36;23.35;;;10.57;;
50249;SDS011;36133;42.522;27.456;2023-05-19T04:00:05;23.25;;;11.13;;
50249;SDS011;36133;42.522;27.456;2023-05-19T04:02:31;28.70;;;11.52;;
50249;SDS011;36133;42.522;27.456;2023-05-19T04:04:57;19.75;;;11.27;;
50249;SDS011;36133;42.522;27.456;2023-05-19T04:07:22;16.40;;;10.38;;
50249;SDS011;36133;42.522;27.456;2023-05-19T04:09:48;23.23;;;10.63;;
50249;SDS011;36133;42.522;27.456;2023-05-19T04:12:14;19.67;;;12.07;;
50249;SDS011;36133;42.522;27.456;2023-05-19T04:14:40;25.67;;;12.02;;
50249;SDS011;36133;42.522;27.456;2023-05-19T04:17:06;23.65;;;12.02;;
50249;SDS011;36133;42.522;27.456;2023-05-19T04:19:32;30.73;;;12.98;;
50249;SDS011;36133;42.522;27.456;2023-05-19T04:21:57;22.52;;;11.95;;
50249;SDS011;36133;42.522;27.456;2023-05-19T04:24:23;16.55;;;11.25;;
50249;SDS011;36133;42.522;27.456;2023-05-19T04:26:48;29.48;;;11.50;;
50249;SDS011;36133;42.522;27.456;2023-05-19T04:29:14;20.10;;;11.43;;
50249;SDS011;36133;42.522;27.456;2023-05-19T04:31:42;24.60;;;11.50;;
50249;SDS011;36133;42.522;27.456;2023-05-19T04:34:08;20.85;;;11.07;;
50249;SDS011;36133;42.522;27.456;2023-05-19T04:36:35;18.63;;;11.50;;
50249;SDS011;36133;42.522;27.456;2023-05-19T04:39:01;31.10;;;11.77;;
50249;SDS011;36133;42.522;27.456;2023-05-19T04:41:31;25.33;;;11.70;;
50249;SDS011;36133;42.522;27.456;2023-05-19T04:43:58;25.30;;;12.10;;
50249;SDS011;36133;42.522;27.456;2023-05-19T04:46:23;22.67;;;11.93;;
50249;SDS011;36133;42.522;27.456;2023-05-19T04:48:50;23.20;;;13.85;;
50249;SDS011;36133;42.522;27.456;2023-05-19T04:51:17;31.45;;;13.38;;
50249;SDS011;36133;42.522;27.456;2023-05-19T04:53:43;25.77;;;12.65;;
50249;SDS011;36133;42.522;27.456;2023-05-19T04:56:09;21.90;;;12.80;;
50249;SDS011;36133;42.522;27.456;2023-05-19T04:58:39;22.63;;;12.65;;
50249;SDS011;36133;42.522;27.456;2023-05-19T05:01:06;29.73;;;12.70;;
50249;SDS011;36133;42.522;27.456;2023-05-19T05:03:33;22.48;;;12.13;;
50249;SDS011;36133;42.522;27.456;2023-05-19T05:05:59;27.17;;;12.20;;
50249;SDS011;36133;42.522;27.456;2023-05-19T05:08:25;23.08;;;12.38;;
50249;SDS011;36133;42.522;27.456;2023-05-19T05:10:51;21.45;;;11.77;;
50249;SDS011;36133;42.522;27.456;2023-05-19T05:13:21;18.13;;;10.82;;
50249;SDS011;36133;42.522;27.456;2023-05-19T05:15:47;22.75;;;11.52;;
50249;SDS011;36133;42.522;27.456;2023-05-19T05:18:13;17.63;;;11.27;;
50249;SDS011;36133;42.522;27.456;2023-05-19T05:20:43;24.02;;;12.02;;
50249;SDS011;36133;42.522;27.456;2023-05-19T05:23:09;16.63;;;11.10;;
50249;SDS011;36133;42.522;27.456;2023-05-19T05:25:38;23.52;;;12.65;;
50249;SDS011;36133;42.522;27.456;2023-05-19T05:28:07;22.77;;;12.65;;
50249;SDS011;36133;42.522;27.456;2023-05-19T05:30:33;22.55;;;11.18;;
50249;SDS011;36133;42.522;27.456;2023-05-19T05:32:59;19.40;;;11.15;;
50249;SDS011;36133;42.522;27.456;2023-05-19T05:35:26;19.95;;;10.45;;
50249;SDS011;36133;42.522;27.456;2023-05-19T05:37:52;24.73;;;11.07;;
50249;SDS011;36133;42.522;27.456;2023-05-19T05:40:17;21.73;;;11.30;;
50249;SDS011;36133;42.522;27.456;2023-05-19T05:42:43;19.58;;;10.98;;
50249;SDS011;36133;42.522;27.456;2023-05-19T05:45:09;17.77;;;10.82;;
50249;SDS011;36133;42.522;27.456;2023-05-19T05:47:34;19.30;;;10.95;;
50249;SDS011;36133;42.522;27.456;2023-05-19T05:50:03;17.88;;;10.40;;
50249;SDS011;36133;42.522;27.456;2023-05-19T05:52:29;18.95;;;11.20;;
50249;SDS011;36133;42.522;27.456;2023-05-19T05:54:56;21.52;;;11.27;;
50249;SDS011;36133;42.522;27.456;2023-05-19T05:57:22;19.23;;;10.77;;
50249;SDS011;36133;42.522;27.456;2023-05-19T05:59:48;19.83;;;10.00;;
50249;SDS011;36133;42.522;27.456;2023-05-19T06:02:15;22.55;;;10.38;;
50249;SDS011;36133;42.522;27.456;2023-05-19T06:04:41;17.58;;;10.52;;
50249;SDS011;36133;42.522;27.456;2023-05-19T06:07:07;22.85;;;10.27;;
50249;SDS011;36133;42.522;27.456;2023-05-19T06:09:33;18.10;;;10.55;;
50249;SDS011;36133;42.522;27.456;2023-05-19T06:11:59;22.55;;;11.18;;
50249;SDS011;36133;42.522;27.456;2023-05-19T06:14:27;16.80;;;10.25;;
50249;SDS011;36133;42.522;27.456;2023-05-19T06:16:52;16.20;;;9.80;;
50249;SDS011;36133;42.522;27.456;2023-05-19T06:19:27;21.35;;;10.77;;
50249;SDS011;36133;42.522;27.456;2023-05-19T06:21:53;19.60;;;10.38;;
50249;SDS011;36133;42.522;27.456;2023-05-19T06:24:18;20.58;;;10.02;;
50249;SDS011;36133;42.522;27.456;2023-05-19T06:26:44;20.63;;;10.13;;
50249;SDS011;36133;42.522;27.456;2023-05-19T06:29:21;16.00;;;10.32;;
50249;SDS011;36133;42.522;27.456;2023-05-19T06:31:59;19.48;;;9.95;;
50249;SDS011;36133;42.522;27.456;2023-05-19T06:34:29;20.40;;;10.68;;
50249;SDS011;36133;42.522;27.456;2023-05-19T06:36:57;24.20;;;11.20;;
50249;SDS011;36133;42.522;27.456;2023-05-19T06:39:29;16.02;;;10.30;;
50249;SDS011;36133;42.522;27.456;2023-05-19T06:42:17;27.25;;;10.90;;
50249;SDS011;36133;42.522;27.456;2023-05-19T06:44:50;22.33;;;10.90;;
50249;SDS011;36133;42.522;27.456;2023-05-19T06:47:20;15.90;;;10.90;;
50249;SDS011;36133;42.522;27.456;2023-05-19T06:49:48;21.13;;;10.45;;
50249;SDS011;36133;42.522;27.456;2023-05-19T06:52:22;19.67;;;10.50;;
50249;SDS011;36133;42.522;27.456;2023-05-19T06:54:51;17.35;;;10.02;;
50249;SDS011;36133;42.522;27.456;2023-05-19T06:57:25;19.67;;;10.30;;
50249;SDS011;36133;42.522;27.456;2023-05-19T06:59:54;17.23;;;10.57;;
50249;SDS011;36133;42.522;27.456;2023-05-19T07:02:25;13.48;;;10.02;;
50249;SDS011;36133;42.522;27.456;2023-05-19T07:05:04;18.35;;;10.80;;
50249;SDS011;36133;42.522;27.456;2023-05-19T07:07:51;14.27;;;10.23;;
50249;SDS011;36133;42.522;27.456;2023-05-19T07:10:53;15.40;;;9.75;;
50249;SDS011;36133;42.522;27.456;2023-05-19T07:13:14;17.38;;;10.82;;
50249;SDS011;36133;42.522;27.456;2023-05-19T07:16:04;17.55;;;9.90;;
50249;SDS011;36133;42.522;27.456;2023-05-19T07:18:38;13.27;;;9.85;;
50249;SDS011;36133;42.522;27.456;2023-05-19T07:21:30;18.10;;;10.05;;
50249;SDS011;36133;42.522;27.456;2023-05-19T07:23:56;19.23;;;9.77;;
50249;SDS011;36133;42.522;27.456;2023-05-19T07:26:27;16.00;;;10.15;;
50249;SDS011;36133;42.522;27.456;2023-05-19T07:29:12;16.67;;;9.73;;
50249;SDS011;36133;42.522;27.456;2023-05-19T07:31:44;16.08;;;10.38;;
50249;SDS011;36133;42.522;27.456;2023-05-19T07:34:22;23.63;;;10.65;;
50249;SDS011;36133;42.522;27.456;2023-05-19T07:36:50;18.02;;;9.95;;
50249;SDS011;36133;42.522;27.456;2023-05-19T07:39:16;21.15;;;11.10;;
50249;SDS011;36133;42.522;27.456;2023-05-19T07:41:42;19.25;;;11.10;;
50249;SDS011;36133;42.522;27.456;2023-05-19T07:44:19;16.85;;;10.80;;
50249;SDS011;36133;42.522;27.456;2023-05-19T07:46:46;15.93;;;11.07;;
50249;SDS011;36133;42.522;27.456;2023-05-19T07:49:18;14.70;;;9.38;;
50249;SDS011;36133;42.522;27.456;2023-05-19T07:51:44;19.73;;;10.65;;
50249;SDS011;36133;42.522;27.456;2023-05-19T07:54:16;18.05;;;11.20;;
50249;SDS011;36133;42.522;27.456;2023-05-19T07:56:48;18.75;;;10.40;;
50249;SDS011;36133;42.522;27.456;2023-05-19T07:59:17;31.98;;;11.95;;
50249;SDS011;36133;42.522;27.456;2023-05-19T08:01:54;25.55;;;10.85;;
50249;SDS011;36133;42.522;27.456;2023-05-19T08:04:22;18.23;;;11.05;;
50249;SDS011;36133;42.522;27.456;2023-05-19T08:06:51;21.30;;;10.50;;
50249;SDS011;36133;42.522;27.456;2023-05-19T08:09:17;19.52;;;10.57;;
50249;SDS011;36133;42.522;27.456;2023-05-19T08:11:45;18.75;;;9.93;;
50249;SDS011;36133;42.522;27.456;2023-05-19T08:14:11;17.75;;;10.48;;
50249;SDS011;36133;42.522;27.456;2023-05-19T08:16:37;18.45;;;9.98;;
50249;SDS011;36133;42.522;27.456;2023-05-19T08:19:06;13.18;;;10.05;;
50249;SDS011;36133;42.522;27.456;2023-05-19T08:21:43;21.25;;;11.80;;
50249;SDS011;36133;42.522;27.456;2023-05-19T08:24:12;16.25;;;10.25;;
50249;SDS011;36133;42.522;27.456;2023-05-19T08:26:38;16.02;;;10.48;;
50249;SDS011;36133;42.522;27.456;2023-05-19T08:29:06;17.08;;;10.32;;
50249;SDS011;36133;42.522;27.456;2023-05-19T08:31:35;15.50;;;11.18;;
50249;SDS011;36133;42.522;27.456;2023-05-19T08:34:00;19.40;;;10.93;;
50249;SDS011;36133;42.522;27.456;2023-05-19T08:36:32;16.33;;;11.32;;
50249;SDS011;36133;42.522;27.456;2023-05-19T08:38:58;20.23;;;10.73;;
50249;SDS011;36133;42.522;27.456;2023-05-19T08:41:24;18.08;;;10.55;;
50249;SDS011;36133;42.522;27.456;2023-05-19T08:43:50;21.88;;;11.77;;
50249;SDS011;36133;42.522;27.456;2023-05-19T08:46:19;16.42;;;10.77;;
50249;SDS011;36133;42.522;27.456;2023-05-19T08:48:49;13.30;;;10.52;;
50249;SDS011;36133;42.522;27.456;2023-05-19T08:54:19;16.65;;;10.38;;
50249;SDS011;36133;42.522;27.456;2023-05-19T08:56:51;22.67;;;11.55;;
50249;SDS011;36133;42.522;27.456;2023-05-19T08:59:17;18.90;;;9.57;;
50249;SDS011;36133;42.522;27.456;2023-05-19T09:01:44;21.70;;;10.45;;
50249;SDS011;36133;42.522;27.456;2023-05-19T09:04:15;18.17;;;11.02;;
50249;SDS011;36133;42.522;27.456;2023-05-19T09:06:41;20.77;;;11.27;;
50249;SDS011;36133;42.522;27.456;2023-05-19T09:09:09;16.27;;;11.13;;
50249;SDS011;36133;42.522;27.456;2023-05-19T09:11:35;16.88;;;10.18;;
50249;SDS011;36133;42.522;27.456;2023-05-19T09:14:04;15.23;;;9.88;;
50249;SDS011;36133;42.522;27.456;2023-05-19T09:16:38;20.00;;;10.50;;
50249;SDS011;36133;42.522;27.456;2023-05-19T09:19:18;18.75;;;10.82;;
50249;SDS011;36133;42.522;27.456;2023-05-19T09:22:02;18.25;;;11.15;;
50249;SDS011;36133;42.522;27.456;2023-05-19T09:24:32;22.10;;;11.85;;
50249;SDS011;36133;42.522;27.456;2023-05-19T09:27:05;17.63;;;11.65;;
50249;SDS011;36133;42.522;27.456;2023-05-19T09:29:31;18.85;;;12.00;;
50249;SDS011;36133;42.522;27.456;2023-05-19T09:32:00;19.83;;;12.05;;
50249;SDS011;36133;42.522;27.456;2023-05-19T09:34:32;25.60;;;11.75;;
50249;SDS011;36133;42.522;27.456;2023-05-19T09:36:58;19.38;;;11.73;;
50249;SDS011;36133;42.522;27.456;2023-05-19T09:39:30;22.83;;;11.65;;
50249;SDS011;36133;42.522;27.456;2023-05-19T09:42:02;20.33;;;11.93;;
50249;SDS011;36133;42.522;27.456;2023-05-19T09:44:34;21.58;;;11.13;;
50249;SDS011;36133;42.522;27.456;2023-05-19T09:47:00;27.25;;;12.73;;
50249;SDS011;36133;42.522;27.456;2023-05-19T09:49:28;23.38;;;12.90;;
50249;SDS011;36133;42.522;27.456;2023-05-19T09:51:57;25.13;;;12.30;;
50249;SDS011;36133;42.522;27.456;2023-05-19T09:54:26;25.58;;;13.55;;
50249;SDS011;36133;42.522;27.456;2023-05-19T09:56:59;20.38;;;11.75;;
50249;SDS011;36133;42.522;27.456;2023-05-19T09:59:27;23.02;;;12.70;;
50249;SDS011;36133;42.522;27.456;2023-05-19T10:01:56;23.63;;;13.02;;
50249;SDS011;36133;42.522;27.456;2023-05-19T10:04:41;20.77;;;12.10;;
50249;SDS011;36133;42.522;27.456;2023-05-19T10:07:07;24.70;;;12.57;;
50249;SDS011;36133;42.522;27.456;2023-05-19T10:09:35;26.45;;;13.52;;
50249;SDS011;36133;42.522;27.456;2023-05-19T10:12:03;20.38;;;11.82;;
50249;SDS011;36133;42.522;27.456;2023-05-19T10:14:30;23.40;;;12.80;;
50249;SDS011;36133;42.522;27.456;2023-05-19T10:17:02;29.13;;;12.90;;
50249;SDS011;36133;42.522;27.456;2023-05-19T10:19:31;22.40;;;13.48;;
50249;SDS011;36133;42.522;27.456;2023-05-19T10:21:58;21.55;;;12.82;;
50249;SDS011;36133;42.522;27.456;2023-05-19T10:24:28;21.58;;;13.15;;
50249;SDS011;36133;42.522;27.456;2023-05-19T10:27:30;20.83;;;12.07;;
50249;SDS011;36133;42.522;27.456;2023-05-19T10:29:48;22.90;;;12.48;;
50249;SDS011;36133;42.522;27.456;2023-05-19T10:32:20;23.40;;;13.13;;
50249;SDS011;36133;42.522;27.456;2023-05-19T10:43:40;22.73;;;13.10;;
50249;SDS011;36133;42.522;27.456;2023-05-19T10:46:21;21.08;;;13.30;;
50249;SDS011;36133;42.522;27.456;2023-05-19T10:48:48;27.23;;;13.80;;
50249;SDS011;36133;42.522;27.456;2023-05-19T10:51:17;29.65;;;13.95;;
50249;SDS011;36133;42.522;27.456;2023-05-19T10:53:43;22.88;;;12.82;;
50249;SDS011;36133;42.522;27.456;2023-05-19T10:56:30;28.23;;;13.43;;
50249;SDS011;36133;42.522;27.456;2023-05-19T10:59:04;19.98;;;12.60;;
50249;SDS011;36133;42.522;27.456;2023-05-19T11:01:33;22.73;;;13.02;;
50249;SDS011;36133;42.522;27.456;2023-05-19T11:04:05;25.33;;;13.55;;
50249;SDS011;36133;42.522;27.456;2023-05-19T11:06:36;22.83;;;13.70;;
50249;SDS011;36133;42.522;27.456;2023-05-19T11:14:10;21.80;;;13.13;;
50249;SDS011;36133;42.522;27.456;2023-05-19T11:16:45;25.38;;;13.30;;
50249;SDS011;36133;42.522;27.456;2023-05-19T11:19:32;19.40;;;13.48;;
50249;SDS011;36133;42.522;27.456;2023-05-19T11:27:25;28.00;;;13.63;;
50249;SDS011;36133;42.522;27.456;2023-05-19T11:29:53;26.02;;;12.95;;
50249;SDS011;36133;42.522;27.456;2023-05-19T11:32:20;27.48;;;13.15;;
50249;SDS011;36133;42.522;27.456;2023-05-19T11:34:47;24.38;;;15.50;;
50249;SDS011;36133;42.522;27.456;2023-05-19T11:37:25;23.20;;;13.90;;
50249;SDS011;36133;42.522;27.456;2023-05-19T11:40:02;25.83;;;13.32;;
50249;SDS011;36133;42.522;27.456;2023-05-19T11:42:31;24.58;;;14.63;;
50249;SDS011;36133;42.522;27.456;2023-05-19T11:44:58;24.48;;;14.73;;
50249;SDS011;36133;42.522;27.456;2023-05-19T11:47:27;19.55;;;12.73;;
50249;SDS011;36133;42.522;27.456;2023-05-19T11:49:57;30.40;;;15.07;;
50249;SDS011;36133;42.522;27.456;2023-05-19T11:52:24;26.80;;;13.65;;
50249;SDS011;36133;42.522;27.456;2023-05-19T11:55:01;25.75;;;13.80;;
50249;SDS011;36133;42.522;27.456;2023-05-19T11:57:27;25.63;;;14.25;;
50249;SDS011;36133;42.522;27.456;2023-05-19T12:00:00;25.38;;;14.55;;
50249;SDS011;36133;42.522;27.456;2023-05-19T12:02:26;25.25;;;14.68;;
50249;SDS011;36133;42.522;27.456;2023-05-19T12:04:54;24.13;;;14.20;;
50249;SDS011;36133;42.522;27.456;2023-05-19T12:07:25;25.75;;;13.50;;
50249;SDS011;36133;42.522;27.456;2023-05-19T12:09:51;26.05;;;13.68;;
50249;SDS011;36133;42.522;27.456;2023-05-19T12:12:19;23.27;;;13.35;;
50249;SDS011;36133;42.522;27.456;2023-05-19T12:14:46;26.65;;;13.52;;
50249;SDS011;36133;42.522;27.456;2023-05-19T12:17:14;31.10;;;14.68;;
50249;SDS011;36133;42.522;27.456;2023-05-19T12:19:44;19.38;;;13.48;;
50249;SDS011;36133;42.522;27.456;2023-05-19T12:22:11;22.30;;;13.48;;
50249;SDS011;36133;42.522;27.456;2023-05-19T12:24:45;24.98;;;13.23;;
50249;SDS011;36133;42.522;27.456;2023-05-19T12:30:01;25.58;;;13.90;;
50249;SDS011;36133;42.522;27.456;2023-05-19T12:32:33;24.25;;;14.13;;
50249;SDS011;36133;42.522;27.456;2023-05-19T12:35:02;24.65;;;14.55;;
50249;SDS011;36133;42.522;27.456;2023-05-19T12:37:42;22.75;;;14.20;;
50249;SDS011;36133;42.522;27.456;2023-05-19T12:40:20;44.90;;;14.10;;
50249;SDS011;36133;42.522;27.456;2023-05-19T12:42:48;25.80;;;13.95;;
50249;SDS011;36133;42.522;27.456;2023-05-19T12:45:20;26.75;;;13.77;;
50249;SDS011;36133;42.522;27.456;2023-05-19T12:47:50;20.43;;;14.13;;
50249;SDS011;36133;42.522;27.456;2023-05-19T12:50:18;24.40;;;13.60;;
50249;SDS011;36133;42.522;27.456;2023-05-19T12:52:51;22.05;;;13.48;;
50249;SDS011;36133;42.522;27.456;2023-05-19T12:55:17;25.60;;;12.65;;
50249;SDS011;36133;42.522;27.456;2023-05-19T12:57:47;29.20;;;12.77;;
50249;SDS011;36133;42.522;27.456;2023-05-19T13:00:38;25.55;;;13.35;;
50249;SDS011;36133;42.522;27.456;2023-05-19T13:03:18;21.63;;;13.20;;
50249;SDS011;36133;42.522;27.456;2023-05-19T13:05:48;19.42;;;12.27;;
50249;SDS011;36133;42.522;27.456;2023-05-19T13:08:23;24.50;;;12.70;;
50249;SDS011;36133;42.522;27.456;2023-05-19T13:13:15;21.30;;;13.65;;
50249;SDS011;36133;42.522;27.456;2023-05-19T13:15:43;23.60;;;12.07;;
50249;SDS011;36133;42.522;27.456;2023-05-19T13:18:11;18.25;;;11.45;;
50249;SDS011;36133;42.522;27.456;2023-05-19T13:20:39;21.45;;;12.38;;
50249;SDS011;36133;42.522;27.456;2023-05-19T13:23:13;17.45;;;11.45;;
50249;SDS011;36133;42.522;27.456;2023-05-19T13:25:40;17.75;;;10.85;;
50249;SDS011;36133;42.522;27.456;2023-05-19T13:28:22;20.63;;;12.52;;
50249;SDS011;36133;42.522;27.456;2023-05-19T13:30:50;20.55;;;12.30;;
50249;SDS011;36133;42.522;27.456;2023-05-19T13:33:16;19.70;;;12.30;;
50249;SDS011;36133;42.522;27.456;2023-05-19T13:36:23;20.08;;;12.52;;
50249;SDS011;36133;42.522;27.456;2023-05-19T13:38:52;24.60;;;11.73;;
50249;SDS011;36133;42.522;27.456;2023-05-19T13:41:24;27.30;;;12.38;;
50249;SDS011;36133;42.522;27.456;2023-05-19T13:43:55;22.23;;;13.02;;
50249;SDS011;36133;42.522;27.456;2023-05-19T13:46:31;18.58;;;12.05;;
50249;SDS011;36133;42.522;27.456;2023-05-19T13:48:59;17.23;;;11.20;;
50249;SDS011;36133;42.522;27.456;2023-05-19T13:51:25;19.38;;;11.45;;
50249;SDS011;36133;42.522;27.456;2023-05-19T13:53:55;22.42;;;12.32;;
50249;SDS011;36133;42.522;27.456;2023-05-19T13:56:24;21.50;;;12.07;;
50249;SDS011;36133;42.522;27.456;2023-05-19T13:58:50;19.90;;;12.18;;
50249;SDS011;36133;42.522;27.456;2023-05-19T14:01:18;26.25;;;11.98;;
50249;SDS011;36133;42.522;27.456;2023-05-19T14:03:44;22.60;;;11.68;;
50249;SDS011;36133;42.522;27.456;2023-05-19T14:06:10;19.92;;;11.75;;
50249;SDS011;36133;42.522;27.456;2023-05-19T14:08:36;19.90;;;11.93;;
50249;SDS011;36133;42.522;27.456;2023-05-19T14:11:01;22.45;;;12.50;;
50249;SDS011;36133;42.522;27.456;2023-05-19T14:13:27;18.52;;;11.70;;
50249;SDS011;36133;42.522;27.456;2023-05-19T14:15:55;18.77;;;12.27;;
50249;SDS011;36133;42.522;27.456;2023-05-19T14:18:27;23.40;;;13.02;;
50249;SDS011;36133;42.522;27.456;2023-05-19T14:20:56;19.08;;;12.32;;
50249;SDS011;36133;42.522;27.456;2023-05-19T14:23:21;21.10;;;12.07;;
50249;SDS011;36133;42.522;27.456;2023-05-19T14:25:56;21.70;;;12.63;;
50249;SDS011;36133;42.522;27.456;2023-05-19T14:28:25;22.30;;;11.80;;
50249;SDS011;36133;42.522;27.456;2023-05-19T14:30:51;20.70;;;12.05;;
50249;SDS011;36133;42.522;27.456;2023-05-19T14:33:16;20.30;;;11.98;;
50249;SDS011;36133;42.522;27.456;2023-05-19T14:35:46;17.60;;;10.80;;
50249;SDS011;36133;42.522;27.456;2023-05-19T14:38:12;21.67;;;11.30;;
50249;SDS011;36133;42.522;27.456;2023-05-19T14:40:38;23.77;;;11.40;;
50249;SDS011;36133;42.522;27.456;2023-05-19T14:43:05;17.30;;;11.50;;
50249;SDS011;36133;42.522;27.456;2023-05-19T14:45:32;20.33;;;11.05;;
50249;SDS011;36133;42.522;27.456;2023-05-19T14:47:58;19.10;;;11.18;;
50249;SDS011;36133;42.522;27.456;2023-05-19T14:50:23;20.08;;;12.55;;
50249;SDS011;36133;42.522;27.456;2023-05-19T14:52:49;20.52;;;11.98;;
50249;SDS011;36133;42.522;27.456;2023-05-19T14:55:18;18.98;;;10.88;;
50249;SDS011;36133;42.522;27.456;2023-05-19T14:57:44;18.63;;;11.70;;
50249;SDS011;36133;42.522;27.456;2023-05-19T15:00:10;21.00;;;12.95;;
50249;SDS011;36133;42.522;27.456;2023-05-19T15:02:38;18.45;;;11.75;;
50249;SDS011;36133;42.522;27.456;2023-05-19T15:05:07;15.70;;;10.77;;